sensor_id;sensor_type;location;lat;lon;timestamp;P1;durP1;ratioP1;P2;durP2;ratioP2
77148;SDS011;66122;47.130;16.844;2024-01-27T00:08:54;0.40;;;0.20;;
77148;SDS011;66122;47.130;16.844;2024-01-27T00:18:58;0.43;;;0.30;;
77148;SDS011;66122;47.130;16.844;2024-01-27T00:29:01;0.40;;;0.22;;
77148;SDS011;66122;47.130;16.844;2024-01-27T00:39:04;0.43;;;0.30;;
77148;SDS011;66122;47.130;16.844;2024-01-27T00:49:06;0.30;;;0.20;;
77148;SDS011;66122;47.130;16.844;2024-01-27T00:59:09;0.30;;;0.20;;
77148;SDS011;66122;47.130;16.844;2024-01-27T01:09:12;0.30;;;0.20;;
77148;SDS011;66122;47.130;16.844;2024-01-27T01:19:14;0.40;;;0.30;;
77148;SDS011;66122;47.130;16.844;2024-01-27T01:29:17;0.30;;;0.20;;
77148;SDS011;66122;47.130;16.844;2024-01-27T01:39:20;0.43;;;0.30;;
77148;SDS011;66122;47.130;16.844;2024-01-27T01:49:22;0.30;;;0.20;;
77148;SDS011;66122;47.130;16.844;2024-01-27T01:59:25;0.40;;;0.30;;
77148;SDS011;66122;47.130;16.844;2024-01-27T02:09:28;0.40;;;0.20;;
77148;SDS011;66122;47.130;16.844;2024-01-27T02:19:35;0.30;;;0.20;;
77148;SDS011;66122;47.130;16.844;2024-01-27T02:29:38;0.33;;;0.20;;
77148;SDS011;66122;47.130;16.844;2024-01-27T02:39:40;0.37;;;0.20;;
77148;SDS011;66122;47.130;16.844;2024-01-27T02:49:43;0.20;;;0.10;;
77148;SDS011;66122;47.130;16.844;2024-01-27T02:59:46;0.40;;;0.20;;
77148;SDS011;66122;47.130;16.844;2024-01-27T03:09:48;0.20;;;0.10;;
77148;SDS011;66122;47.130;16.844;2024-01-27T03:19:51;0.30;;;0.20;;
77148;SDS011;66122;47.130;16.844;2024-01-27T03:29:55;0.30;;;0.20;;
77148;SDS011;66122;47.130;16.844;2024-01-27T03:40:01;0.40;;;0.30;;
77148;SDS011;66122;47.130;16.844;2024-01-27T03:50:04;0.30;;;0.20;;
77148;SDS011;66122;47.130;16.844;2024-01-27T04:00:07;0.45;;;0.30;;
77148;SDS011;66122;47.130;16.844;2024-01-27T04:10:10;0.30;;;0.13;;
77148;SDS011;66122;47.130;16.844;2024-01-27T04:20:12;0.30;;;0.10;;
77148;SDS011;66122;47.130;16.844;2024-01-27T04:30:15;0.20;;;0.10;;
77148;SDS011;66122;47.130;16.844;2024-01-27T04:40:18;0.30;;;0.20;;
77148;SDS011;66122;47.130;16.844;2024-01-27T04:50:20;0.20;;;0.10;;
77148;SDS011;66122;47.130;16.844;2024-01-27T05:00:23;0.43;;;0.25;;
77148;SDS011;66122;47.130;16.844;2024-01-27T05:10:28;0.20;;;0.10;;
77148;SDS011;66122;47.130;16.844;2024-01-27T05:20:32;0.30;;;0.10;;
77148;SDS011;66122;47.130;16.844;2024-01-27T05:30:35;0.20;;;0.10;;
77148;SDS011;66122;47.130;16.844;2024-01-27T05:40:37;0.30;;;0.17;;
77148;SDS011;66122;47.130;16.844;2024-01-27T05:50:43;0.30;;;0.10;;
77148;SDS011;66122;47.130;16.844;2024-01-27T06:00:46;0.37;;;0.20;;
77148;SDS011;66122;47.130;16.844;2024-01-27T06:10:49;0.20;;;0.10;;
77148;SDS011;66122;47.130;16.844;2024-01-27T06:20:51;0.30;;;0.20;;
77148;SDS011;66122;47.130;16.844;2024-01-27T06:30:54;0.20;;;0.10;;
77148;SDS011;66122;47.130;16.844;2024-01-27T06:40:57;0.20;;;0.10;;
77148;SDS011;66122;47.130;16.844;2024-01-27T06:50:59;0.20;;;0.10;;
77148;SDS011;66122;47.130;16.844;2024-01-27T07:01:02;0.20;;;0.10;;
77148;SDS011;66122;47.130;16.844;2024-01-27T07:11:05;0.25;;;0.10;;
77148;SDS011;66122;47.130;16.844;2024-01-27T07:21:08;0.30;;;0.20;;
77148;SDS011;66122;47.130;16.844;2024-01-27T07:31:10;0.43;;;0.30;;
77148;SDS011;66122;47.130;16.844;2024-01-27T07:41:13;0.50;;;0.30;;
77148;SDS011;66122;47.130;16.844;2024-01-27T07:51:16;0.30;;;0.10;;
77148;SDS011;66122;47.130;16.844;2024-01-27T08:01:18;0.40;;;0.20;;
77148;SDS011;66122;47.130;16.844;2024-01-27T08:11:21;0.30;;;0.10;;
77148;SDS011;66122;47.130;16.844;2024-01-27T08:21:24;0.38;;;0.25;;
77148;SDS011;66122;47.130;16.844;2024-01-27T08:31:26;0.30;;;0.20;;
77148;SDS011;66122;47.130;16.844;2024-01-27T08:41:29;0.40;;;0.23;;
77148;SDS011;66122;47.130;16.844;2024-01-27T08:51:31;0.40;;;0.30;;
77148;SDS011;66122;47.130;16.844;2024-01-27T09:01:34;0.50;;;0.30;;
77148;SDS011;66122;47.130;16.844;2024-01-27T09:11:37;0.37;;;0.20;;
77148;SDS011;66122;47.130;16.844;2024-01-27T09:21:39;0.40;;;0.20;;
77148;SDS011;66122;47.130;16.844;2024-01-27T09:31:42;0.40;;;0.20;;
77148;SDS011;66122;47.130;16.844;2024-01-27T09:41:45;0.57;;;0.40;;
77148;SDS011;66122;47.130;16.844;2024-01-27T09:51:50;0.60;;;0.43;;
77148;SDS011;66122;47.130;16.844;2024-01-27T10:01:53;0.40;;;0.28;;
77148;SDS011;66122;47.130;16.844;2024-01-27T10:11:57;0.50;;;0.40;;
77148;SDS011;66122;47.130;16.844;2024-01-27T10:22:03;0.60;;;0.47;;
77148;SDS011;66122;47.130;16.844;2024-01-27T10:32:09;0.68;;;0.57;;
77148;SDS011;66122;47.130;16.844;2024-01-27T10:42:12;0.70;;;0.63;;
77148;SDS011;66122;47.130;16.844;2024-01-27T10:52:15;0.70;;;0.67;;
77148;SDS011;66122;47.130;16.844;2024-01-27T11:02:22;0.57;;;0.40;;
77148;SDS011;66122;47.130;16.844;2024-01-27T11:12:26;0.50;;;0.30;;
77148;SDS011;66122;47.130;16.844;2024-01-27T11:22:29;0.60;;;0.47;;
77148;SDS011;66122;47.130;16.844;2024-01-27T11:32:33;0.60;;;0.40;;
77148;SDS011;66122;47.130;16.844;2024-01-27T11:42:35;0.50;;;0.30;;
77148;SDS011;66122;47.130;16.844;2024-01-27T11:52:38;0.50;;;0.30;;
77148;SDS011;66122;47.130;16.844;2024-01-27T12:02:41;0.70;;;0.60;;
77148;SDS011;66122;47.130;16.844;2024-01-27T12:12:44;0.60;;;0.50;;
77148;SDS011;66122;47.130;16.844;2024-01-27T12:22:46;0.83;;;0.83;;
77148;SDS011;66122;47.130;16.844;2024-01-27T12:32:49;0.60;;;0.40;;
77148;SDS011;66122;47.130;16.844;2024-01-27T12:42:52;0.60;;;0.40;;
77148;SDS011;66122;47.130;16.844;2024-01-27T12:52:54;0.70;;;0.60;;
77148;SDS011;66122;47.130;16.844;2024-01-27T13:02:57;0.70;;;0.60;;
77148;SDS011;66122;47.130;16.844;2024-01-27T13:12:59;0.70;;;0.60;;
77148;SDS011;66122;47.130;16.844;2024-01-27T13:23:02;0.70;;;0.60;;
77148;SDS011;66122;47.130;16.844;2024-01-27T13:33:05;0.60;;;0.47;;
77148;SDS011;66122;47.130;16.844;2024-01-27T13:43:07;0.60;;;0.50;;
77148;SDS011;66122;47.130;16.844;2024-01-27T13:53:10;0.50;;;0.32;;
77148;SDS011;66122;47.130;16.844;2024-01-27T14:03:13;0.60;;;0.50;;
77148;SDS011;66122;47.130;16.844;2024-01-27T14:13:16;0.40;;;0.20;;
77148;SDS011;66122;47.130;16.844;2024-01-27T14:23:18;0.30;;;0.20;;
77148;SDS011;66122;47.130;16.844;2024-01-27T14:33:21;0.30;;;0.20;;
77148;SDS011;66122;47.130;16.844;2024-01-27T14:43:26;0.40;;;0.23;;
77148;SDS011;66122;47.130;16.844;2024-01-27T14:53:29;0.30;;;0.10;;
77148;SDS011;66122;47.130;16.844;2024-01-27T15:03:32;0.40;;;0.30;;
77148;SDS011;66122;47.130;16.844;2024-01-27T15:13:35;0.30;;;0.20;;
77148;SDS011;66122;47.130;16.844;2024-01-27T15:23:38;0.40;;;0.20;;
77148;SDS011;66122;47.130;16.844;2024-01-27T15:33:40;0.30;;;0.10;;
77148;SDS011;66122;47.130;16.844;2024-01-27T15:43:43;0.37;;;0.20;;
77148;SDS011;66122;47.130;16.844;2024-01-27T15:53:49;0.20;;;0.10;;
77148;SDS011;66122;47.130;16.844;2024-01-27T16:03:51;0.30;;;0.20;;
77148;SDS011;66122;47.130;16.844;2024-01-27T16:13:54;0.20;;;0.10;;
77148;SDS011;66122;47.130;16.844;2024-01-27T16:23:56;0.20;;;0.10;;
77148;SDS011;66122;47.130;16.844;2024-01-27T16:33:59;0.30;;;0.13;;
77148;SDS011;66122;47.130;16.844;2024-01-27T16:44:02;0.40;;;0.20;;
77148;SDS011;66122;47.130;16.844;2024-01-27T16:54:05;0.20;;;0.10;;
77148;SDS011;66122;47.130;16.844;2024-01-27T17:04:08;0.27;;;0.10;;
77148;SDS011;66122;47.130;16.844;2024-01-27T17:14:15;0.25;;;0.10;;
77148;SDS011;66122;47.130;16.844;2024-01-27T17:24:18;0.30;;;0.10;;
77148;SDS011;66122;47.130;16.844;2024-01-27T17:34:21;0.20;;;0.10;;
77148;SDS011;66122;47.130;16.844;2024-01-27T17:44:24;0.20;;;0.10;;
77148;SDS011;66122;47.130;16.844;2024-01-27T17:54:27;0.20;;;0.10;;
77148;SDS011;66122;47.130;16.844;2024-01-27T18:04:34;0.20;;;0.10;;
77148;SDS011;66122;47.130;16.844;2024-01-27T18:14:37;0.20;;;0.10;;
77148;SDS011;66122;47.130;16.844;2024-01-27T18:24:40;0.20;;;0.10;;
77148;SDS011;66122;47.130;16.844;2024-01-27T18:34:43;0.30;;;0.17;;
77148;SDS011;66122;47.130;16.844;2024-01-27T18:44:46;0.20;;;0.10;;
77148;SDS011;66122;47.130;16.844;2024-01-27T18:54:49;0.28;;;0.10;;
77148;SDS011;66122;47.130;16.844;2024-01-27T19:04:51;0.20;;;0.10;;
77148;SDS011;66122;47.130;16.844;2024-01-27T19:14:55;0.20;;;0.10;;
77148;SDS011;66122;47.130;16.844;2024-01-27T19:24:58;0.30;;;0.10;;
77148;SDS011;66122;47.130;16.844;2024-01-27T19:35:01;0.20;;;0.10;;
77148;SDS011;66122;47.130;16.844;2024-01-27T19:45:07;0.20;;;0.10;;
77148;SDS011;66122;47.130;16.844;2024-01-27T19:55:10;0.20;;;0.10;;
77148;SDS011;66122;47.130;16.844;2024-01-27T20:05:13;0.20;;;0.10;;
77148;SDS011;66122;47.130;16.844;2024-01-27T20:15:16;0.20;;;0.10;;
77148;SDS011;66122;47.130;16.844;2024-01-27T20:25:19;0.20;;;0.10;;
77148;SDS011;66122;47.130;16.844;2024-01-27T20:35:23;0.20;;;0.10;;
77148;SDS011;66122;47.130;16.844;2024-01-27T20:45:28;0.30;;;0.13;;
77148;SDS011;66122;47.130;16.844;2024-01-27T20:55:31;0.20;;;0.10;;
77148;SDS011;66122;47.130;16.844;2024-01-27T21:05:34;0.30;;;0.17;;
77148;SDS011;66122;47.130;16.844;2024-01-27T21:15:36;0.20;;;0.10;;
77148;SDS011;66122;47.130;16.844;2024-01-27T21:25:39;0.20;;;0.10;;
77148;SDS011;66122;47.130;16.844;2024-01-27T21:35:42;0.30;;;0.13;;
77148;SDS011;66122;47.130;16.844;2024-01-27T21:45:45;0.20;;;0.10;;
77148;SDS011;66122;47.130;16.844;2024-01-27T21:55:49;0.20;;;0.10;;
77148;SDS011;66122;47.130;16.844;2024-01-27T22:05:51;0.30;;;0.10;;
77148;SDS011;66122;47.130;16.844;2024-01-27T22:15:54;0.20;;;0.10;;
77148;SDS011;66122;47.130;16.844;2024-01-27T22:25:57;0.30;;;0.17;;
77148;SDS011;66122;47.130;16.844;2024-01-27T22:36:00;0.20;;;0.10;;
77148;SDS011;66122;47.130;16.844;2024-01-27T22:46:02;0.20;;;0.10;;
77148;SDS011;66122;47.130;16.844;2024-01-27T22:56:05;0.20;;;0.10;;
77148;SDS011;66122;47.130;16.844;2024-01-27T23:06:08;0.20;;;0.10;;
77148;SDS011;66122;47.130;16.844;2024-01-27T23:16:11;0.20;;;0.10;;
77148;SDS011;66122;47.130;16.844;2024-01-27T23:26:14;0.20;;;0.10;;
77148;SDS011;66122;47.130;16.844;2024-01-27T23:36:16;0.20;;;0.10;;
77148;SDS011;66122;47.130;16.844;2024-01-27T23:46:19;0.20;;;0.10;;
77148;SDS011;66122;47.130;16.844;2024-01-27T23:56:21;0.20;;;0.10;;
